Kirby, Vermont
Current Conditions -  °F | °C
As of 12:55 PM on Thursday 27 Nov 2014 (Local Time) from KCDA Reporting Station
Overcast Overcast  
Wind Chill: 19°   Ceiling: 2100
Heat Index: 26°   Visibility: 10mi
Dew Point: 18°   Wind: 6mph
Humidity: 72%   Direction: 310°NW
Pressure: 29.96"   Gusts: NA
Location:  44.4417°N, 71.859°W
Report Text: KCDA 271755Z AUTO 31005KT 10SM OVC021 M03/M08 A2996 RMK AO2 T10331077 11032 21048
Loading
Personal Weather Stations






























Interactive Weather Map New forecast layout! Learn more

10-Day Weather Forecast

Advertisements
Track Severe Weather on mobile